createdAt,value
2024-02-13T00:01:08.966Z,0.00
2024-02-13T00:03:09.278Z,0.00
2024-02-13T00:05:09.834Z,0.00
2024-02-13T00:07:10.343Z,0.00
2024-02-13T00:09:10.660Z,0.00
2024-02-13T00:11:10.964Z,0.00
2024-02-13T00:13:11.338Z,0.00
2024-02-13T00:15:11.890Z,0.00
2024-02-13T00:17:12.342Z,0.00
2024-02-13T00:19:12.687Z,0.00
2024-02-13T00:21:13.065Z,0.00
2024-02-13T00:23:13.408Z,0.00
2024-02-13T00:25:13.732Z,0.00
2024-02-13T00:27:13.985Z,0.00
2024-02-13T00:29:14.300Z,0.00
2024-02-13T00:31:14.552Z,0.00
2024-02-13T00:33:15.083Z,0.00
2024-02-13T00:35:15.395Z,0.00
2024-02-13T00:37:15.729Z,0.00
2024-02-13T00:39:15.983Z,0.00
2024-02-13T00:41:16.345Z,0.00
2024-02-13T00:43:16.578Z,0.00
2024-02-13T00:45:16.872Z,0.00
2024-02-13T00:47:17.159Z,0.00
2024-02-13T00:49:17.488Z,0.00
2024-02-13T00:51:17.811Z,0.00
2024-02-13T00:53:18.085Z,0.00
2024-02-13T00:55:18.389Z,0.00
2024-02-13T00:57:18.783Z,0.00
2024-02-13T00:59:19.137Z,0.00
2024-02-13T01:01:19.608Z,0.00
2024-02-13T01:03:19.895Z,0.00
2024-02-13T01:05:20.252Z,0.00
2024-02-13T01:07:20.544Z,0.00
2024-02-13T01:09:20.798Z,0.00
2024-02-13T01:11:21.121Z,0.00
2024-02-13T01:13:21.451Z,0.00
2024-02-13T01:15:21.979Z,0.00
2024-02-13T01:17:22.318Z,0.00
2024-02-13T01:19:22.755Z,0.00
2024-02-13T01:21:23.092Z,0.00
2024-02-13T01:23:23.397Z,0.00
2024-02-13T01:25:23.656Z,0.00
2024-02-13T01:27:23.921Z,0.00
2024-02-13T01:29:24.297Z,0.00
2024-02-13T01:31:24.570Z,0.00
2024-02-13T01:33:24.970Z,0.00
2024-02-13T01:35:25.407Z,0.00
2024-02-13T01:37:25.771Z,0.00
2024-02-13T01:39:26.039Z,0.00
2024-02-13T01:41:26.425Z,0.00
2024-02-13T01:43:31.550Z,0.00
2024-02-13T01:45:31.819Z,0.00
2024-02-13T01:47:32.159Z,0.00
2024-02-13T01:49:32.581Z,0.00
2024-02-13T01:51:37.676Z,0.00
2024-02-13T01:53:38.069Z,0.00
2024-02-13T01:55:38.406Z,0.00
2024-02-13T01:57:38.675Z,0.00
2024-02-13T01:59:39.041Z,0.00
2024-02-13T02:01:39.344Z,0.00
2024-02-13T02:03:39.640Z,0.00
2024-02-13T02:05:40.138Z,0.00
2024-02-13T02:07:40.542Z,0.00
2024-02-13T02:09:40.847Z,0.00
2024-02-13T02:11:41.190Z,0.00
2024-02-13T02:13:41.545Z,0.00
2024-02-13T02:15:41.870Z,0.00
2024-02-13T02:17:42.306Z,0.00
2024-02-13T02:19:42.690Z,0.00
2024-02-13T02:21:42.978Z,0.00
2024-02-13T02:23:43.460Z,0.00
2024-02-13T02:25:43.778Z,0.00
2024-02-13T02:27:44.048Z,0.00
2024-02-13T02:29:44.452Z,0.00
2024-02-13T02:31:44.732Z,0.00
2024-02-13T02:33:45.247Z,0.00
2024-02-13T02:35:45.770Z,0.00
2024-02-13T02:37:46.037Z,0.00
2024-02-13T02:39:46.303Z,0.00
2024-02-13T02:41:46.784Z,0.00
2024-02-13T02:43:47.099Z,0.00
2024-02-13T02:45:47.388Z,0.00
2024-02-13T02:47:47.861Z,0.00
2024-02-13T02:49:48.268Z,0.00
2024-02-13T02:51:48.601Z,0.00
2024-02-13T02:53:48.943Z,0.00
2024-02-13T02:55:49.228Z,0.00
2024-02-13T02:57:49.541Z,0.00
2024-02-13T02:59:49.966Z,0.00
2024-02-13T03:01:50.262Z,0.00
2024-02-13T03:03:51.216Z,0.00
2024-02-13T03:05:51.983Z,0.00
2024-02-13T03:07:52.317Z,0.00
2024-02-13T03:09:53.427Z,0.00
2024-02-13T03:11:53.775Z,0.00
2024-02-13T03:13:54.042Z,0.00
2024-02-13T03:15:54.328Z,0.00
2024-02-13T03:17:54.672Z,0.00
2024-02-13T03:19:54.964Z,0.00
2024-02-13T03:21:55.265Z,0.00
2024-02-13T03:23:55.543Z,0.00
2024-02-13T03:25:55.824Z,0.00
2024-02-13T03:27:56.110Z,0.00
2024-02-13T03:29:56.525Z,0.00
2024-02-13T03:31:56.788Z,0.00
2024-02-13T03:33:57.422Z,0.00
2024-02-13T03:35:57.824Z,0.00
2024-02-13T03:37:58.108Z,0.00
2024-02-13T03:39:58.392Z,0.00
2024-02-13T03:41:59.015Z,0.00
2024-02-13T03:43:59.307Z,0.00
2024-02-13T03:45:59.564Z,0.00
2024-02-13T03:48:00.011Z,0.00
2024-02-13T03:50:00.382Z,0.00
2024-02-13T03:52:00.679Z,0.00
2024-02-13T03:54:01.022Z,0.00
2024-02-13T03:56:01.332Z,0.00
2024-02-13T03:58:01.577Z,0.00
2024-02-13T04:00:02.083Z,0.00
2024-02-13T04:02:02.412Z,0.00
2024-02-13T04:04:02.836Z,0.00
2024-02-13T04:06:03.174Z,0.00
2024-02-13T04:08:03.494Z,0.00
2024-02-13T04:10:03.858Z,0.00
2024-02-13T04:12:04.128Z,0.00
2024-02-13T04:14:04.432Z,0.00
2024-02-13T04:16:04.722Z,0.00
2024-02-13T04:18:05.070Z,0.00
2024-02-13T04:20:05.369Z,0.00
2024-02-13T04:22:06.443Z,0.00
2024-02-13T04:24:06.724Z,0.00
2024-02-13T04:26:15.132Z,0.00
2024-02-13T04:28:12.171Z,0.00
2024-02-13T04:30:12.488Z,0.00
2024-02-13T04:32:12.791Z,0.00
2024-02-13T04:34:13.163Z,0.00
2024-02-13T04:36:13.526Z,0.00
2024-02-13T04:38:13.840Z,0.00
2024-02-13T04:40:14.733Z,0.00
2024-02-13T04:42:15.576Z,0.00
2024-02-13T04:44:15.896Z,0.00
2024-02-13T04:46:16.208Z,0.00
2024-02-13T04:48:16.535Z,0.00
2024-02-13T04:50:21.821Z,0.00
2024-02-13T04:52:22.152Z,0.00
2024-02-13T04:54:22.449Z,0.00
2024-02-13T04:56:22.769Z,0.00
2024-02-13T04:58:23.083Z,0.00
2024-02-13T05:00:23.332Z,0.00
2024-02-13T05:02:23.658Z,0.00
2024-02-13T05:04:24.062Z,0.00
2024-02-13T05:06:24.335Z,0.00
2024-02-13T05:08:24.627Z,0.00
2024-02-13T05:10:24.890Z,0.00
2024-02-13T05:12:25.241Z,0.00
2024-02-13T05:14:25.725Z,0.00
2024-02-13T05:16:26.014Z,0.00
2024-02-13T05:18:26.469Z,0.00
2024-02-13T05:20:26.819Z,0.00
2024-02-13T05:22:27.106Z,0.00
2024-02-13T05:24:27.423Z,0.00
2024-02-13T05:26:27.760Z,0.00
2024-02-13T05:28:28.162Z,0.00
2024-02-13T05:30:28.464Z,0.00
2024-02-13T05:32:29.561Z,0.00
2024-02-13T05:34:29.887Z,0.00
2024-02-13T05:36:30.145Z,0.00
2024-02-13T05:38:30.483Z,0.00
2024-02-13T05:40:30.736Z,0.00
2024-02-13T05:42:31.009Z,0.00
2024-02-13T05:44:31.391Z,0.00
2024-02-13T05:46:31.808Z,0.00
2024-02-13T05:48:32.204Z,0.00
2024-02-13T05:50:32.526Z,0.00
2024-02-13T05:52:33.552Z,0.00
2024-02-13T05:54:33.882Z,0.00
2024-02-13T05:56:34.408Z,0.00
2024-02-13T05:58:34.758Z,0.00
2024-02-13T06:00:35.051Z,0.00
2024-02-13T06:02:35.681Z,0.00
2024-02-13T06:04:36.077Z,0.00
2024-02-13T06:06:36.398Z,0.00
2024-02-13T06:08:36.865Z,0.00
2024-02-13T06:10:41.937Z,0.00
2024-02-13T06:12:42.208Z,0.00
2024-02-13T06:14:42.493Z,0.00
2024-02-13T06:16:42.840Z,0.00
2024-02-13T06:18:43.164Z,4.00
2024-02-13T06:20:43.506Z,4.00
2024-02-13T06:22:43.852Z,8.00
2024-02-13T06:24:44.086Z,8.00
2024-02-13T06:26:44.455Z,8.00
2024-02-13T06:28:44.821Z,16.00
2024-02-13T06:30:46.068Z,16.00
2024-02-13T06:32:46.394Z,24.00
2024-02-13T06:34:46.873Z,28.00
2024-02-13T06:36:47.187Z,40.00
2024-02-13T06:38:47.551Z,44.00
2024-02-13T06:40:47.826Z,44.00
2024-02-13T06:42:48.096Z,52.00
2024-02-13T06:44:48.516Z,68.00
2024-02-13T06:46:48.804Z,68.00
2024-02-13T06:48:49.354Z,80.00
2024-02-13T06:50:49.899Z,100.00
2024-02-13T06:52:50.251Z,108.00
2024-02-13T06:54:51.242Z,140.00
2024-02-13T06:56:55.879Z,164.00
2024-02-13T06:58:56.149Z,184.00
2024-02-13T07:00:56.476Z,224.00
2024-02-13T07:02:56.922Z,284.00
2024-02-13T07:04:57.207Z,312.00
2024-02-13T07:07:08.198Z,380.00
2024-02-13T07:09:02.769Z,416.00
2024-02-13T07:11:03.118Z,452.00
2024-02-13T07:13:03.495Z,464.00
2024-02-13T07:15:03.975Z,452.00
2024-02-13T07:17:04.263Z,492.00
2024-02-13T07:19:04.720Z,532.00
2024-02-13T07:21:07.868Z,540.00
2024-02-13T07:23:09.085Z,580.00
2024-02-13T07:25:09.381Z,644.00
2024-02-13T07:27:09.766Z,672.00
2024-02-13T07:29:10.069Z,640.00
2024-02-13T07:31:10.390Z,620.00
2024-02-13T07:33:10.848Z,660.00
2024-02-13T07:35:11.191Z,716.00
2024-02-13T07:37:11.524Z,768.00
2024-02-13T07:39:11.902Z,752.00
2024-02-13T07:41:12.164Z,780.00
2024-02-13T07:43:12.489Z,772.00
2024-02-13T07:45:12.792Z,732.00
2024-02-13T07:47:13.151Z,732.00
2024-02-13T07:49:13.459Z,804.00
2024-02-13T07:51:13.719Z,884.00
2024-02-13T07:53:14.181Z,856.00
2024-02-13T07:55:14.595Z,912.00
2024-02-13T07:57:14.889Z,920.00
2024-02-13T07:59:15.260Z,944.00
2024-02-13T08:01:16.339Z,972.00
2024-02-13T08:03:16.710Z,988.00
2024-02-13T08:05:17.133Z,1040.00
2024-02-13T08:07:17.489Z,1104.00
2024-02-13T08:09:17.768Z,1148.00
2024-02-13T08:11:18.233Z,1136.00
2024-02-13T08:13:18.643Z,1212.00
2024-02-13T08:15:18.941Z,1220.00
2024-02-13T08:17:19.257Z,1196.00
2024-02-13T08:19:19.642Z,1308.00
2024-02-13T08:21:19.994Z,1332.00
2024-02-13T08:23:20.318Z,1304.00
2024-02-13T08:25:20.632Z,1432.00
2024-02-13T08:27:20.929Z,1344.00
2024-02-13T08:29:21.366Z,1348.00
2024-02-13T08:31:21.654Z,1276.00
2024-02-13T08:33:22.061Z,1264.00
2024-02-13T08:35:22.912Z,1352.00
2024-02-13T08:37:23.297Z,1416.00
2024-02-13T08:39:23.591Z,1356.00
2024-02-13T08:41:23.963Z,1256.00
2024-02-13T08:43:24.327Z,1284.00
2024-02-13T08:45:25.101Z,1300.00
2024-02-13T08:47:25.536Z,1236.00
2024-02-13T08:49:30.798Z,1296.00
2024-02-13T08:51:33.417Z,1356.00
2024-02-13T08:53:43.303Z,1392.00
2024-02-13T08:55:43.667Z,1364.00
2024-02-13T08:57:44.011Z,1388.00
2024-02-13T08:59:44.371Z,1364.00
2024-02-13T09:01:45.501Z,1352.00
2024-02-13T09:03:45.845Z,1424.00
2024-02-13T09:05:46.246Z,1376.00
2024-02-13T09:07:46.557Z,1516.00
2024-02-13T09:09:46.849Z,1420.00
2024-02-13T09:11:47.212Z,1588.00
2024-02-13T09:13:47.540Z,1624.00
2024-02-13T09:15:47.899Z,1632.00
2024-02-13T09:17:48.251Z,1508.00
2024-02-13T09:19:48.668Z,1556.00
2024-02-13T09:21:48.992Z,1620.00
2024-02-13T09:23:49.347Z,1576.00
2024-02-13T09:25:49.681Z,1636.00
2024-02-13T09:27:49.987Z,1548.00
2024-02-13T09:29:50.479Z,1716.00
2024-02-13T09:31:50.878Z,1612.00
2024-02-13T09:33:51.323Z,1604.00
2024-02-13T09:35:52.115Z,1608.00
2024-02-13T09:37:52.562Z,1728.00
2024-02-13T09:39:52.865Z,1620.00
2024-02-13T09:41:53.397Z,1616.00
2024-02-13T09:43:53.906Z,1736.00
2024-02-13T09:45:54.207Z,1560.00
2024-02-13T09:47:54.657Z,1608.00
2024-02-13T09:49:55.098Z,1792.00
2024-02-13T09:51:55.401Z,1700.00
2024-02-13T09:54:00.687Z,1736.00
2024-02-13T09:56:01.014Z,1768.00
2024-02-13T09:58:01.360Z,1664.00
2024-02-13T10:00:01.806Z,1756.00
2024-02-13T10:02:02.082Z,1912.00
2024-02-13T10:04:02.436Z,1912.00
2024-02-13T10:06:03.204Z,1924.00
2024-02-13T10:08:03.480Z,1904.00
2024-02-13T10:10:03.755Z,2004.00
2024-02-13T10:12:04.057Z,1956.00
2024-02-13T10:14:04.362Z,2084.00
2024-02-13T10:16:04.636Z,2212.00
2024-02-13T10:18:05.043Z,2096.00
2024-02-13T10:20:05.404Z,2144.00
2024-02-13T10:22:05.654Z,2380.00
2024-02-13T10:24:06.092Z,2536.00
2024-02-13T10:26:06.402Z,2936.00
2024-02-13T10:28:06.685Z,3208.00
2024-02-13T10:30:07.019Z,3584.00
2024-02-13T10:32:07.314Z,3816.00
2024-02-13T10:34:07.625Z,3580.00
2024-02-13T10:36:07.981Z,2928.00
2024-02-13T10:38:08.583Z,2680.00
2024-02-13T10:40:08.874Z,3260.00
2024-02-13T10:42:09.210Z,2472.00
2024-02-13T10:44:09.494Z,2120.00
2024-02-13T10:46:09.755Z,2056.00
2024-02-13T10:48:10.150Z,1996.00
2024-02-13T10:50:10.499Z,2060.00
2024-02-13T10:52:10.757Z,2128.00
2024-02-13T10:54:11.035Z,2276.00
2024-02-13T10:56:11.375Z,2432.00
2024-02-13T10:58:17.639Z,2728.00
2024-02-13T11:00:16.825Z,2324.00
2024-02-13T11:02:17.194Z,2560.00
2024-02-13T11:04:17.510Z,2860.00
2024-02-13T11:06:17.933Z,2852.00
2024-02-13T11:08:18.291Z,3052.00
2024-02-13T11:10:18.632Z,2876.00
2024-02-13T11:12:19.060Z,3352.00
2024-02-13T11:14:19.431Z,2992.00
2024-02-13T11:16:19.784Z,2748.00
2024-02-13T11:18:20.219Z,3424.00
2024-02-13T11:20:20.592Z,3440.00
2024-02-13T11:22:20.857Z,3356.00
2024-02-13T11:24:21.145Z,3172.00
2024-02-13T11:26:21.417Z,3592.00
2024-02-13T11:28:21.827Z,4236.00
2024-02-13T11:30:22.072Z,4148.00
2024-02-13T11:32:22.575Z,4400.00
2024-02-13T11:34:23.130Z,3100.00
2024-02-13T11:36:24.156Z,3816.00
2024-02-13T11:38:24.558Z,3388.00
2024-02-13T11:40:24.887Z,3488.00
2024-02-13T11:42:25.634Z,3176.00
2024-02-13T11:44:26.534Z,3480.00
2024-02-13T11:46:26.782Z,3724.00
2024-02-13T11:48:29.427Z,3308.00
2024-02-13T11:50:32.579Z,3212.00
2024-02-13T11:52:32.839Z,2684.00
2024-02-13T11:54:33.099Z,2832.00
2024-02-13T11:56:33.436Z,3980.00
2024-02-13T11:58:33.705Z,2660.00
2024-02-13T12:00:34.073Z,2860.00
2024-02-13T12:02:34.592Z,3344.00
2024-02-13T12:04:35.071Z,2828.00
2024-02-13T12:06:40.363Z,2980.00
2024-02-13T12:08:40.705Z,3868.00
2024-02-13T12:10:40.985Z,3720.00
2024-02-13T12:12:41.277Z,3524.00
2024-02-13T12:14:41.589Z,2692.00
2024-02-13T12:16:41.854Z,2852.00
2024-02-13T12:18:42.233Z,4160.00
2024-02-13T12:20:42.575Z,3736.00
2024-02-13T12:22:42.886Z,2988.00
2024-02-13T12:24:43.148Z,3260.00
2024-02-13T12:26:43.480Z,3424.00
2024-02-13T12:28:43.770Z,5028.00
2024-02-13T12:30:44.050Z,4492.00
2024-02-13T12:32:44.479Z,3796.00
2024-02-13T12:34:45.177Z,2896.00
2024-02-13T12:36:45.618Z,2836.00
2024-02-13T12:38:45.959Z,4196.00
2024-02-13T12:40:46.369Z,4956.00
2024-02-13T12:42:46.689Z,4204.00
2024-02-13T12:44:47.069Z,3612.00
2024-02-13T12:46:47.329Z,3152.00
2024-02-13T12:48:47.732Z,2928.00
2024-02-13T12:50:48.192Z,2952.00
2024-02-13T12:52:48.521Z,2352.00
2024-02-13T12:54:48.835Z,2216.00
2024-02-13T12:56:49.139Z,1976.00
2024-02-13T12:58:49.407Z,2044.00
2024-02-13T13:00:49.793Z,2380.00
2024-02-13T13:02:50.148Z,2348.00
2024-02-13T13:04:50.493Z,4416.00
2024-02-13T13:06:55.611Z,3120.00
2024-02-13T13:08:57.476Z,3200.00
2024-02-13T13:10:58.507Z,4376.00
2024-02-13T13:12:58.789Z,3356.00
2024-02-13T13:15:03.737Z,2712.00
2024-02-13T13:17:04.279Z,3768.00
2024-02-13T13:19:04.843Z,2564.00
2024-02-13T13:21:05.426Z,3084.00
2024-02-13T13:23:05.716Z,2796.00
2024-02-13T13:25:06.009Z,2348.00
2024-02-13T13:27:11.652Z,4148.00
2024-02-13T13:29:12.233Z,2196.00
2024-02-13T13:31:12.600Z,3124.00
2024-02-13T13:33:13.196Z,1964.00
2024-02-13T13:35:13.596Z,2596.00
2024-02-13T13:37:13.941Z,1832.00
2024-02-13T13:39:14.180Z,1856.00
2024-02-13T13:41:14.597Z,1816.00
2024-02-13T13:43:14.919Z,1856.00
2024-02-13T13:45:15.224Z,1808.00
2024-02-13T13:47:15.569Z,1708.00
2024-02-13T13:49:15.988Z,1832.00
2024-02-13T13:51:16.387Z,2044.00
2024-02-13T13:53:16.913Z,1996.00
2024-02-13T13:55:17.321Z,2000.00
2024-02-13T13:57:17.622Z,1832.00
2024-02-13T13:59:17.960Z,1784.00
2024-02-13T14:01:18.360Z,1864.00
2024-02-13T14:03:18.645Z,1780.00
2024-02-13T14:05:19.078Z,4600.00
2024-02-13T14:07:19.418Z,4584.00
2024-02-13T14:09:19.758Z,4704.00
2024-02-13T14:11:20.131Z,2172.00
2024-02-13T14:13:20.464Z,4672.00
2024-02-13T14:15:20.742Z,2536.00
2024-02-13T14:17:21.094Z,4568.00
2024-02-13T14:19:21.461Z,3300.00
2024-02-13T14:21:21.782Z,2020.00
2024-02-13T14:23:22.546Z,1852.00
2024-02-13T14:25:22.889Z,1664.00
2024-02-13T14:27:23.404Z,1484.00
2024-02-13T14:29:23.730Z,1444.00
2024-02-13T14:31:24.041Z,1500.00
2024-02-13T14:33:24.725Z,1460.00
2024-02-13T14:35:25.154Z,1664.00
2024-02-13T14:37:25.487Z,1596.00
2024-02-13T14:39:25.768Z,1608.00
2024-02-13T14:41:26.147Z,1716.00
2024-02-13T14:43:26.447Z,3196.00
2024-02-13T14:45:26.780Z,1936.00
2024-02-13T14:47:27.275Z,2108.00
2024-02-13T14:49:27.828Z,2700.00
2024-02-13T14:51:28.665Z,2132.00
2024-02-13T14:53:29.012Z,2188.00
2024-02-13T14:55:29.371Z,3364.00
2024-02-13T14:57:29.672Z,2772.00
2024-02-13T14:59:29.991Z,2624.00
2024-02-13T15:01:30.338Z,2896.00
2024-02-13T15:03:30.605Z,3344.00
2024-02-13T15:05:30.960Z,1924.00
2024-02-13T15:07:31.240Z,1936.00
2024-02-13T15:09:31.562Z,2052.00
2024-02-13T15:11:31.934Z,1948.00
2024-02-13T15:13:32.166Z,3672.00
2024-02-13T15:15:32.783Z,3176.00
2024-02-13T15:17:33.368Z,2044.00
2024-02-13T15:19:33.742Z,1840.00
2024-02-13T15:21:33.991Z,1524.00
2024-02-13T15:23:34.314Z,1660.00
2024-02-13T15:25:34.597Z,1940.00
2024-02-13T15:27:34.915Z,1968.00
2024-02-13T15:29:35.187Z,2060.00
2024-02-13T15:31:35.468Z,1872.00
2024-02-13T15:33:36.096Z,1900.00
2024-02-13T15:35:36.556Z,1856.00
2024-02-13T15:37:36.814Z,1700.00
2024-02-13T15:39:37.125Z,1572.00
2024-02-13T15:41:37.488Z,1340.00
2024-02-13T15:43:37.777Z,1228.00
2024-02-13T15:45:38.063Z,1228.00
2024-02-13T15:47:38.383Z,1076.00
2024-02-13T15:49:38.779Z,1160.00
2024-02-13T15:51:39.084Z,1096.00
2024-02-13T15:53:39.445Z,916.00
2024-02-13T15:55:39.710Z,844.00
2024-02-13T15:57:40.017Z,800.00
2024-02-13T15:59:40.372Z,660.00
2024-02-13T16:01:40.660Z,600.00
2024-02-13T16:03:40.994Z,556.00
2024-02-13T16:05:41.306Z,556.00
2024-02-13T16:07:41.579Z,520.00
2024-02-13T16:09:41.889Z,480.00
2024-02-13T16:11:42.198Z,368.00
2024-02-13T16:13:42.500Z,276.00
2024-02-13T16:15:42.846Z,260.00
2024-02-13T16:17:43.162Z,228.00
2024-02-13T16:19:43.610Z,208.00
2024-02-13T16:21:43.846Z,188.00
2024-02-13T16:23:44.226Z,180.00
2024-02-13T16:25:44.504Z,144.00
2024-02-13T16:27:44.798Z,128.00
2024-02-13T16:29:45.177Z,124.00
2024-02-13T16:31:45.456Z,96.00
2024-02-13T16:33:45.888Z,80.00
2024-02-13T16:35:46.345Z,64.00
2024-02-13T16:37:46.590Z,52.00
2024-02-13T16:39:46.895Z,44.00
2024-02-13T16:41:47.326Z,36.00
2024-02-13T16:43:52.428Z,32.00
2024-02-13T16:45:52.778Z,28.00
2024-02-13T16:47:53.198Z,24.00
2024-02-13T16:49:53.732Z,16.00
2024-02-13T16:51:54.087Z,12.00
2024-02-13T16:53:54.392Z,8.00
2024-02-13T16:55:59.702Z,8.00
2024-02-13T16:57:59.952Z,4.00
2024-02-13T17:00:05.302Z,8.00
2024-02-13T17:02:05.685Z,4.00
2024-02-13T17:04:06.018Z,4.00
2024-02-13T17:06:06.419Z,0.00
2024-02-13T17:08:06.753Z,4.00
2024-02-13T17:10:07.024Z,0.00
2024-02-13T17:12:07.423Z,0.00
2024-02-13T17:14:07.945Z,0.00
2024-02-13T17:16:08.256Z,0.00
2024-02-13T17:18:08.673Z,0.00
2024-02-13T17:20:09.236Z,0.00
2024-02-13T17:22:09.694Z,0.00
2024-02-13T17:24:10.049Z,0.00
2024-02-13T17:26:10.416Z,0.00
2024-02-13T17:28:10.693Z,0.00
2024-02-13T17:30:11.024Z,0.00
2024-02-13T17:32:11.337Z,0.00
2024-02-13T17:34:11.779Z,0.00
2024-02-13T17:36:12.248Z,0.00
2024-02-13T17:38:12.566Z,0.00
2024-02-13T17:40:12.873Z,0.00
2024-02-13T17:42:13.169Z,0.00
2024-02-13T17:44:13.432Z,0.00
2024-02-13T17:46:13.731Z,0.00
2024-02-13T17:48:14.107Z,0.00
2024-02-13T17:50:14.455Z,0.00
2024-02-13T17:52:14.710Z,0.00
2024-02-13T17:54:15.037Z,0.00
2024-02-13T17:56:15.345Z,0.00
2024-02-13T17:58:15.658Z,0.00
2024-02-13T18:00:20.782Z,0.00
2024-02-13T18:02:21.093Z,0.00
2024-02-13T18:04:21.710Z,12.00
2024-02-13T18:06:22.011Z,16.00
2024-02-13T18:08:22.309Z,12.00
2024-02-13T18:10:22.547Z,12.00
2024-02-13T18:12:22.866Z,16.00
2024-02-13T18:14:23.159Z,12.00
2024-02-13T18:16:23.407Z,12.00
2024-02-13T18:18:27.425Z,12.00
2024-02-13T18:20:28.438Z,0.00
2024-02-13T18:22:28.817Z,0.00
2024-02-13T18:24:29.112Z,0.00
2024-02-13T18:26:29.389Z,0.00
2024-02-13T18:28:29.681Z,0.00
2024-02-13T18:30:29.940Z,0.00
2024-02-13T18:32:30.342Z,0.00
2024-02-13T18:34:30.756Z,0.00
2024-02-13T18:36:31.100Z,0.00
2024-02-13T18:38:31.394Z,0.00
2024-02-13T18:40:31.724Z,0.00
2024-02-13T18:42:32.031Z,0.00
2024-02-13T18:44:32.506Z,0.00
2024-02-13T18:46:32.777Z,0.00
2024-02-13T18:48:33.365Z,0.00
2024-02-13T18:50:33.726Z,0.00
2024-02-13T18:52:34.273Z,0.00
2024-02-13T18:54:34.579Z,0.00
2024-02-13T18:56:34.905Z,0.00
2024-02-13T18:58:35.206Z,0.00
2024-02-13T19:00:35.553Z,0.00
2024-02-13T19:02:35.886Z,0.00
2024-02-13T19:04:36.445Z,0.00
2024-02-13T19:06:36.985Z,0.00
2024-02-13T19:08:37.431Z,0.00
2024-02-13T19:10:38.246Z,0.00
2024-02-13T19:12:38.806Z,0.00
2024-02-13T19:14:39.193Z,0.00
2024-02-13T19:16:46.025Z,0.00
2024-02-13T19:18:46.581Z,0.00
2024-02-13T19:20:46.990Z,0.00
2024-02-13T19:22:47.355Z,0.00
2024-02-13T19:24:47.649Z,0.00
2024-02-13T19:26:48.002Z,0.00
2024-02-13T19:28:48.267Z,0.00
2024-02-13T19:30:48.769Z,0.00
2024-02-13T19:32:49.185Z,0.00
2024-02-13T19:34:49.559Z,0.00
2024-02-13T19:36:54.811Z,0.00
2024-02-13T19:38:55.129Z,0.00
2024-02-13T19:40:55.394Z,0.00
2024-02-13T19:42:55.690Z,0.00
2024-02-13T19:44:55.977Z,0.00
2024-02-13T19:46:56.242Z,0.00
2024-02-13T19:48:56.627Z,0.00
2024-02-13T19:50:57.070Z,0.00
2024-02-13T19:52:57.352Z,0.00
2024-02-13T19:54:57.736Z,0.00
2024-02-13T19:56:57.998Z,0.00
2024-02-13T19:58:58.389Z,0.00
2024-02-13T20:00:58.708Z,0.00
2024-02-13T20:02:59.000Z,0.00
2024-02-13T20:04:59.281Z,0.00
2024-02-13T20:06:59.645Z,0.00
2024-02-13T20:08:59.981Z,0.00
2024-02-13T20:11:00.374Z,0.00
2024-02-13T20:13:05.489Z,0.00
2024-02-13T20:15:05.798Z,0.00
2024-02-13T20:17:06.119Z,0.00
2024-02-13T20:19:06.552Z,0.00
2024-02-13T20:21:06.943Z,0.00
2024-02-13T20:23:07.179Z,0.00
2024-02-13T20:25:12.370Z,0.00
2024-02-13T20:27:12.662Z,0.00
2024-02-13T20:29:12.959Z,0.00
2024-02-13T20:31:13.279Z,0.00
2024-02-13T20:33:17.036Z,0.00
2024-02-13T20:35:18.557Z,0.00
2024-02-13T20:37:18.821Z,0.00
2024-02-13T20:39:19.218Z,0.00
2024-02-13T20:41:19.464Z,0.00
2024-02-13T20:43:19.762Z,0.00
2024-02-13T20:47:20.857Z,0.00
2024-02-13T20:49:21.277Z,0.00
2024-02-13T20:51:21.526Z,0.00
2024-02-13T20:53:21.856Z,0.00
2024-02-13T20:55:22.183Z,0.00
2024-02-13T20:57:22.476Z,0.00
2024-02-13T20:59:22.769Z,0.00
2024-02-13T21:01:23.032Z,0.00
2024-02-13T21:03:23.404Z,0.00
2024-02-13T21:05:23.738Z,0.00
2024-02-13T21:07:24.047Z,0.00
2024-02-13T21:09:24.284Z,0.00
2024-02-13T21:11:24.613Z,0.00
2024-02-13T21:13:24.904Z,0.00
2024-02-13T21:15:25.216Z,0.00
2024-02-13T21:17:25.538Z,0.00
2024-02-13T21:19:25.976Z,0.00
2024-02-13T21:21:26.353Z,0.00
2024-02-13T21:23:26.722Z,0.00
2024-02-13T21:25:27.035Z,0.00
2024-02-13T21:27:27.341Z,0.00
2024-02-13T21:29:27.684Z,0.00
2024-02-13T21:31:27.952Z,0.00
2024-02-13T21:33:28.407Z,0.00
2024-02-13T21:35:28.930Z,0.00
2024-02-13T21:37:29.224Z,0.00
2024-02-13T21:39:29.558Z,0.00
2024-02-13T21:41:30.128Z,0.00
2024-02-13T21:43:30.394Z,0.00
2024-02-13T21:45:30.811Z,0.00
2024-02-13T21:47:31.204Z,0.00
2024-02-13T21:49:31.724Z,0.00
2024-02-13T21:51:32.034Z,0.00
2024-02-13T21:53:32.333Z,0.00
2024-02-13T21:55:32.613Z,0.00
2024-02-13T21:57:32.915Z,0.00
2024-02-13T21:59:33.256Z,0.00
2024-02-13T22:01:33.591Z,0.00
2024-02-13T22:03:33.935Z,0.00
2024-02-13T22:05:34.252Z,0.00
2024-02-13T22:07:34.562Z,0.00
2024-02-13T22:09:34.838Z,0.00
2024-02-13T22:11:36.782Z,0.00
2024-02-13T22:13:37.209Z,0.00
2024-02-13T22:15:37.612Z,0.00
2024-02-13T22:17:38.044Z,0.00
2024-02-13T22:19:38.549Z,0.00
2024-02-13T22:21:39.098Z,0.00
2024-02-13T22:23:39.508Z,0.00
2024-02-13T22:25:39.837Z,0.00
2024-02-13T22:27:40.314Z,0.00
2024-02-13T22:29:40.631Z,0.00
2024-02-13T22:31:40.908Z,0.00
2024-02-13T22:33:41.448Z,0.00
2024-02-13T22:35:41.848Z,0.00
2024-02-13T22:37:42.180Z,0.00
2024-02-13T22:39:42.470Z,0.00
2024-02-13T22:41:42.827Z,0.00
2024-02-13T22:43:43.091Z,0.00
2024-02-13T22:45:43.410Z,0.00
2024-02-13T22:47:43.717Z,0.00
2024-02-13T22:49:44.039Z,0.00
2024-02-13T22:51:45.323Z,0.00
2024-02-13T22:53:45.849Z,0.00
2024-02-13T22:55:46.151Z,0.00
2024-02-13T22:57:46.457Z,0.00
2024-02-13T22:59:46.817Z,0.00
2024-02-13T23:01:47.149Z,0.00
2024-02-13T23:03:47.526Z,0.00
2024-02-13T23:05:48.002Z,0.00
2024-02-13T23:07:48.459Z,0.00
2024-02-13T23:09:48.783Z,0.00
2024-02-13T23:11:49.124Z,0.00
2024-02-13T23:13:51.426Z,0.00
2024-02-13T23:15:52.058Z,0.00
2024-02-13T23:17:52.476Z,0.00
2024-02-13T23:19:52.975Z,0.00
2024-02-13T23:21:53.266Z,0.00
2024-02-13T23:23:53.825Z,0.00
2024-02-13T23:25:54.166Z,0.00
2024-02-13T23:27:54.457Z,0.00
2024-02-13T23:29:55.030Z,0.00
2024-02-13T23:31:55.357Z,0.00
2024-02-13T23:33:55.948Z,0.00
2024-02-13T23:35:56.261Z,0.00
2024-02-13T23:37:56.558Z,0.00
2024-02-13T23:39:56.883Z,0.00
2024-02-13T23:41:57.210Z,0.00
2024-02-13T23:43:57.505Z,0.00
2024-02-13T23:45:57.794Z,0.00
2024-02-13T23:47:58.115Z,0.00
2024-02-13T23:49:58.393Z,0.00
2024-02-13T23:51:58.706Z,0.00
2024-02-13T23:53:59.031Z,0.00
2024-02-13T23:55:59.368Z,0.00
2024-02-13T23:57:59.706Z,0.00
